sensor_id;sensor_type;location;lat;lon;timestamp;pressure;altitude;pressure_sealevel;temperature;humidity
22755;BME280;11544;42.020;23.094;2024-01-16T00:02:05;95889.88;;;6.40;100.00
22755;BME280;11544;42.020;23.094;2024-01-16T00:04:32;95878.28;;;6.70;100.00
22755;BME280;11544;42.020;23.094;2024-01-16T00:06:59;95878.22;;;6.72;100.00
22755;BME280;11544;42.020;23.094;2024-01-16T00:09:27;95882.50;;;6.73;100.00
22755;BME280;11544;42.020;23.094;2024-01-16T00:11:54;95868.66;;;6.52;100.00
22755;BME280;11544;42.020;23.094;2024-01-16T00:14:21;95864.38;;;6.52;100.00
22755;BME280;11544;42.020;23.094;2024-01-16T00:16:47;95864.31;;;6.32;100.00
22755;BME280;11544;42.020;23.094;2024-01-16T00:19:15;95864.66;;;6.45;100.00
22755;BME280;11544;42.020;23.094;2024-01-16T00:21:43;95866.38;;;6.87;100.00
22755;BME280;11544;42.020;23.094;2024-01-16T00:24:14;95867.56;;;6.37;100.00
22755;BME280;11544;42.020;23.094;2024-01-16T00:26:41;95884.16;;;6.53;100.00
22755;BME280;11544;42.020;23.094;2024-01-16T00:29:08;95889.19;;;6.78;100.00
22755;BME280;11544;42.020;23.094;2024-01-16T00:31:35;95899.81;;;6.50;100.00
22755;BME280;11544;42.020;23.094;2024-01-16T00:34:03;95891.22;;;6.50;100.00
22755;BME280;11544;42.020;23.094;2024-01-16T00:36:30;95892.44;;;6.19;100.00
22755;BME280;11544;42.020;23.094;2024-01-16T00:38:57;95893.75;;;6.07;100.00
22755;BME280;11544;42.020;23.094;2024-01-16T00:41:24;95883.09;;;6.15;100.00
22755;BME280;11544;42.020;23.094;2024-01-16T00:43:51;95877.13;;;6.57;100.00
22755;BME280;11544;42.020;23.094;2024-01-16T00:46:18;95874.53;;;6.57;100.00
22755;BME280;11544;42.020;23.094;2024-01-16T00:48:45;95894.16;;;5.97;100.00
22755;BME280;11544;42.020;23.094;2024-01-16T00:51:12;95893.06;;;6.02;100.00
22755;BME280;11544;42.020;23.094;2024-01-16T00:53:41;95885.94;;;6.31;100.00
22755;BME280;11544;42.020;23.094;2024-01-16T00:56:08;95876.81;;;6.65;100.00
22755;BME280;11544;42.020;23.094;2024-01-16T00:58:35;95864.88;;;6.61;100.00
22755;BME280;11544;42.020;23.094;2024-01-16T01:01:03;95864.19;;;6.98;100.00
22755;BME280;11544;42.020;23.094;2024-01-16T01:03:30;95863.78;;;7.07;100.00
22755;BME280;11544;42.020;23.094;2024-01-16T01:05:57;95856.81;;;6.89;100.00
22755;BME280;11544;42.020;23.094;2024-01-16T01:08:24;95863.13;;;6.61;100.00
22755;BME280;11544;42.020;23.094;2024-01-16T01:10:52;95881.91;;;6.24;100.00
22755;BME280;11544;42.020;23.094;2024-01-16T01:13:19;95880.25;;;6.43;100.00
22755;BME280;11544;42.020;23.094;2024-01-16T01:15:46;95878.78;;;6.58;100.00
22755;BME280;11544;42.020;23.094;2024-01-16T01:18:13;95868.22;;;6.42;100.00
22755;BME280;11544;42.020;23.094;2024-01-16T01:20:40;95879.66;;;6.79;100.00
22755;BME280;11544;42.020;23.094;2024-01-16T01:23:07;95874.53;;;6.77;100.00
22755;BME280;11544;42.020;23.094;2024-01-16T01:25:34;95876.06;;;6.41;100.00
22755;BME280;11544;42.020;23.094;2024-01-16T01:28:01;95879.19;;;5.81;100.00
22755;BME280;11544;42.020;23.094;2024-01-16T01:30:28;95871.75;;;6.40;100.00
22755;BME280;11544;42.020;23.094;2024-01-16T01:32:55;95872.13;;;6.52;100.00
22755;BME280;11544;42.020;23.094;2024-01-16T01:35:22;95875.88;;;6.45;100.00
22755;BME280;11544;42.020;23.094;2024-01-16T01:37:49;95872.03;;;6.54;100.00
22755;BME280;11544;42.020;23.094;2024-01-16T01:40:16;95881.06;;;6.45;100.00
22755;BME280;11544;42.020;23.094;2024-01-16T01:42:43;95882.75;;;6.67;100.00
22755;BME280;11544;42.020;23.094;2024-01-16T01:45:11;95874.34;;;6.62;100.00
22755;BME280;11544;42.020;23.094;2024-01-16T01:47:39;95880.94;;;6.26;100.00
22755;BME280;11544;42.020;23.094;2024-01-16T01:50:09;95870.22;;;6.35;100.00
22755;BME280;11544;42.020;23.094;2024-01-16T01:52:38;95875.38;;;6.57;100.00
22755;BME280;11544;42.020;23.094;2024-01-16T01:55:11;95876.00;;;6.63;100.00
22755;BME280;11544;42.020;23.094;2024-01-16T01:57:40;95868.91;;;6.88;100.00
22755;BME280;11544;42.020;23.094;2024-01-16T02:00:10;95852.03;;;6.37;100.00
22755;BME280;11544;42.020;23.094;2024-01-16T02:02:39;95847.72;;;6.58;100.00
22755;BME280;11544;42.020;23.094;2024-01-16T02:05:07;95853.34;;;6.68;100.00
22755;BME280;11544;42.020;23.094;2024-01-16T02:07:34;95851.78;;;6.64;100.00
22755;BME280;11544;42.020;23.094;2024-01-16T02:10:02;95854.94;;;6.92;100.00
22755;BME280;11544;42.020;23.094;2024-01-16T02:12:30;95863.72;;;6.88;100.00
22755;BME280;11544;42.020;23.094;2024-01-16T02:14:57;95872.00;;;6.96;100.00
22755;BME280;11544;42.020;23.094;2024-01-16T02:17:24;95866.44;;;6.65;100.00
22755;BME280;11544;42.020;23.094;2024-01-16T02:19:51;95866.44;;;6.65;100.00
22755;BME280;11544;42.020;23.094;2024-01-16T02:22:20;95865.00;;;6.57;100.00
22755;BME280;11544;42.020;23.094;2024-01-16T02:24:49;95864.59;;;6.46;100.00
22755;BME280;11544;42.020;23.094;2024-01-16T02:27:16;95868.31;;;6.82;100.00
22755;BME280;11544;42.020;23.094;2024-01-16T02:29:43;95867.69;;;6.76;100.00
22755;BME280;11544;42.020;23.094;2024-01-16T02:32:12;95861.47;;;6.81;100.00
22755;BME280;11544;42.020;23.094;2024-01-16T02:34:40;95874.44;;;6.81;100.00
22755;BME280;11544;42.020;23.094;2024-01-16T02:37:08;95868.13;;;7.07;100.00
22755;BME280;11544;42.020;23.094;2024-01-16T02:39:35;95865.97;;;6.75;100.00
22755;BME280;11544;42.020;23.094;2024-01-16T02:42:02;95879.25;;;6.68;100.00
22755;BME280;11544;42.020;23.094;2024-01-16T02:44:29;95878.84;;;7.18;100.00
22755;BME280;11544;42.020;23.094;2024-01-16T02:46:56;95878.47;;;6.66;100.00
22755;BME280;11544;42.020;23.094;2024-01-16T02:49:23;95875.72;;;6.91;100.00
22755;BME280;11544;42.020;23.094;2024-01-16T02:51:53;95865.75;;;7.02;100.00
22755;BME280;11544;42.020;23.094;2024-01-16T02:54:22;95871.16;;;6.75;100.00
22755;BME280;11544;42.020;23.094;2024-01-16T02:56:49;95885.50;;;6.20;100.00
22755;BME280;11544;42.020;23.094;2024-01-16T02:59:16;95903.56;;;6.86;100.00
22755;BME280;11544;42.020;23.094;2024-01-16T03:01:43;95904.19;;;6.70;100.00
22755;BME280;11544;42.020;23.094;2024-01-16T03:04:10;95917.03;;;6.51;100.00
22755;BME280;11544;42.020;23.094;2024-01-16T03:06:38;95922.69;;;6.39;100.00
22755;BME280;11544;42.020;23.094;2024-01-16T03:09:06;95925.38;;;6.14;100.00
22755;BME280;11544;42.020;23.094;2024-01-16T03:11:33;95916.50;;;6.43;100.00
22755;BME280;11544;42.020;23.094;2024-01-16T03:14:00;95913.06;;;6.65;100.00
22755;BME280;11544;42.020;23.094;2024-01-16T03:16:28;95915.78;;;6.82;100.00
22755;BME280;11544;42.020;23.094;2024-01-16T03:18:55;95914.84;;;7.05;100.00
22755;BME280;11544;42.020;23.094;2024-01-16T03:21:23;95914.25;;;6.98;100.00
22755;BME280;11544;42.020;23.094;2024-01-16T03:23:52;95916.66;;;6.61;100.00
22755;BME280;11544;42.020;23.094;2024-01-16T03:26:39;95920.13;;;6.82;100.00
22755;BME280;11544;42.020;23.094;2024-01-16T03:29:49;95927.94;;;7.02;100.00
22755;BME280;11544;42.020;23.094;2024-01-16T03:32:16;95930.19;;;7.30;100.00
22755;BME280;11544;42.020;23.094;2024-01-16T03:34:43;95929.31;;;6.89;100.00
22755;BME280;11544;42.020;23.094;2024-01-16T03:37:10;95932.59;;;7.14;100.00
22755;BME280;11544;42.020;23.094;2024-01-16T03:39:37;95943.06;;;6.91;100.00
22755;BME280;11544;42.020;23.094;2024-01-16T03:42:04;95959.66;;;6.65;100.00
22755;BME280;11544;42.020;23.094;2024-01-16T03:44:31;95955.19;;;6.46;100.00
22755;BME280;11544;42.020;23.094;2024-01-16T03:46:58;95955.09;;;6.92;100.00
22755;BME280;11544;42.020;23.094;2024-01-16T03:49:25;95963.91;;;6.88;100.00
22755;BME280;11544;42.020;23.094;2024-01-16T03:51:52;95964.66;;;6.69;100.00
22755;BME280;11544;42.020;23.094;2024-01-16T03:54:19;95967.38;;;6.66;100.00
22755;BME280;11544;42.020;23.094;2024-01-16T03:56:46;95972.84;;;6.81;100.00
22755;BME280;11544;42.020;23.094;2024-01-16T03:59:13;95974.53;;;6.60;100.00
22755;BME280;11544;42.020;23.094;2024-01-16T04:01:40;95981.38;;;7.05;100.00
22755;BME280;11544;42.020;23.094;2024-01-16T04:04:10;95978.41;;;7.14;100.00
22755;BME280;11544;42.020;23.094;2024-01-16T04:06:37;95972.66;;;7.06;100.00
22755;BME280;11544;42.020;23.094;2024-01-16T04:09:05;95978.63;;;7.08;100.00
22755;BME280;11544;42.020;23.094;2024-01-16T04:11:32;95983.13;;;7.25;100.00
22755;BME280;11544;42.020;23.094;2024-01-16T04:13:59;95990.28;;;6.97;100.00
22755;BME280;11544;42.020;23.094;2024-01-16T04:16:26;95996.06;;;7.04;100.00
22755;BME280;11544;42.020;23.094;2024-01-16T04:18:53;95998.72;;;7.03;100.00
22755;BME280;11544;42.020;23.094;2024-01-16T04:21:20;95993.06;;;7.13;100.00
22755;BME280;11544;42.020;23.094;2024-01-16T04:23:48;96007.50;;;7.20;100.00
22755;BME280;11544;42.020;23.094;2024-01-16T04:26:15;96010.22;;;6.95;100.00
22755;BME280;11544;42.020;23.094;2024-01-16T04:28:42;96014.91;;;6.64;100.00
22755;BME280;11544;42.020;23.094;2024-01-16T04:31:09;96023.78;;;6.58;100.00
22755;BME280;11544;42.020;23.094;2024-01-16T04:33:38;96024.13;;;6.49;100.00
22755;BME280;11544;42.020;23.094;2024-01-16T04:36:06;96031.59;;;6.56;100.00
22755;BME280;11544;42.020;23.094;2024-01-16T04:38:33;96038.88;;;6.23;100.00
22755;BME280;11544;42.020;23.094;2024-01-16T04:41:02;96041.63;;;6.42;100.00
22755;BME280;11544;42.020;23.094;2024-01-16T04:43:29;96045.09;;;6.87;100.00
22755;BME280;11544;42.020;23.094;2024-01-16T04:45:56;96054.38;;;6.70;100.00
22755;BME280;11544;42.020;23.094;2024-01-16T04:48:25;96057.97;;;6.90;100.00
22755;BME280;11544;42.020;23.094;2024-01-16T04:50:52;96053.50;;;6.71;100.00
22755;BME280;11544;42.020;23.094;2024-01-16T04:53:19;96064.09;;;7.09;100.00
22755;BME280;11544;42.020;23.094;2024-01-16T04:55:46;96051.56;;;6.76;100.00
22755;BME280;11544;42.020;23.094;2024-01-16T04:58:13;96059.53;;;6.48;100.00
22755;BME280;11544;42.020;23.094;2024-01-16T05:00:40;96058.16;;;6.85;100.00
22755;BME280;11544;42.020;23.094;2024-01-16T05:03:07;96061.78;;;7.24;100.00
22755;BME280;11544;42.020;23.094;2024-01-16T05:05:34;96065.84;;;7.09;100.00
22755;BME280;11544;42.020;23.094;2024-01-16T05:08:01;96076.00;;;6.69;100.00
22755;BME280;11544;42.020;23.094;2024-01-16T05:10:29;96081.81;;;6.76;100.00
22755;BME280;11544;42.020;23.094;2024-01-16T05:12:57;96091.16;;;7.02;100.00
22755;BME280;11544;42.020;23.094;2024-01-16T05:15:24;96087.81;;;6.31;100.00
22755;BME280;11544;42.020;23.094;2024-01-16T05:17:51;96098.41;;;6.47;100.00
22755;BME280;11544;42.020;23.094;2024-01-16T05:20:18;96102.63;;;6.73;100.00
22755;BME280;11544;42.020;23.094;2024-01-16T05:22:45;96104.22;;;6.53;100.00
22755;BME280;11544;42.020;23.094;2024-01-16T05:25:12;96124.47;;;6.66;100.00
22755;BME280;11544;42.020;23.094;2024-01-16T05:27:39;96133.81;;;6.46;100.00
22755;BME280;11544;42.020;23.094;2024-01-16T05:30:06;96134.28;;;6.57;100.00
22755;BME280;11544;42.020;23.094;2024-01-16T05:32:35;96155.97;;;6.55;100.00
22755;BME280;11544;42.020;23.094;2024-01-16T05:35:02;96174.00;;;6.08;100.00
22755;BME280;11544;42.020;23.094;2024-01-16T05:37:29;96168.50;;;5.90;100.00
22755;BME280;11544;42.020;23.094;2024-01-16T05:39:56;96171.56;;;6.03;100.00
22755;BME280;11544;42.020;23.094;2024-01-16T05:42:24;96164.06;;;6.69;100.00
22755;BME280;11544;42.020;23.094;2024-01-16T05:44:51;96159.22;;;6.84;100.00
22755;BME280;11544;42.020;23.094;2024-01-16T05:47:20;96166.25;;;6.56;100.00
22755;BME280;11544;42.020;23.094;2024-01-16T05:49:47;96176.22;;;6.67;100.00
22755;BME280;11544;42.020;23.094;2024-01-16T05:52:14;96180.22;;;6.52;100.00
22755;BME280;11544;42.020;23.094;2024-01-16T05:54:41;96181.19;;;6.25;100.00
22755;BME280;11544;42.020;23.094;2024-01-16T05:57:08;96199.72;;;6.12;100.00
22755;BME280;11544;42.020;23.094;2024-01-16T05:59:35;96202.72;;;6.25;100.00
22755;BME280;11544;42.020;23.094;2024-01-16T06:02:02;96200.06;;;6.52;100.00
22755;BME280;11544;42.020;23.094;2024-01-16T06:04:29;96216.31;;;6.32;100.00
22755;BME280;11544;42.020;23.094;2024-01-16T06:06:56;96218.84;;;6.33;100.00
22755;BME280;11544;42.020;23.094;2024-01-16T06:09:23;96233.63;;;6.30;100.00
22755;BME280;11544;42.020;23.094;2024-01-16T06:11:50;96243.16;;;6.54;100.00
22755;BME280;11544;42.020;23.094;2024-01-16T06:14:17;96244.16;;;6.50;100.00
22755;BME280;11544;42.020;23.094;2024-01-16T06:16:48;96255.50;;;6.46;100.00
22755;BME280;11544;42.020;23.094;2024-01-16T06:19:15;96260.81;;;6.42;100.00
22755;BME280;11544;42.020;23.094;2024-01-16T06:21:43;96271.75;;;6.25;100.00
22755;BME280;11544;42.020;23.094;2024-01-16T06:24:10;96278.59;;;6.26;100.00
22755;BME280;11544;42.020;23.094;2024-01-16T06:26:38;96278.41;;;6.32;100.00
22755;BME280;11544;42.020;23.094;2024-01-16T06:29:05;96294.47;;;6.42;100.00
22755;BME280;11544;42.020;23.094;2024-01-16T06:31:34;96306.06;;;6.05;100.00
22755;BME280;11544;42.020;23.094;2024-01-16T06:34:01;96313.16;;;6.25;100.00
22755;BME280;11544;42.020;23.094;2024-01-16T06:36:28;96324.81;;;6.63;100.00
22755;BME280;11544;42.020;23.094;2024-01-16T06:38:55;96326.16;;;6.50;100.00
22755;BME280;11544;42.020;23.094;2024-01-16T06:41:23;96327.19;;;6.18;100.00
22755;BME280;11544;42.020;23.094;2024-01-16T06:43:50;96343.78;;;6.39;100.00
22755;BME280;11544;42.020;23.094;2024-01-16T06:46:17;96339.88;;;5.99;100.00
22755;BME280;11544;42.020;23.094;2024-01-16T06:48:44;96345.88;;;6.27;100.00
22755;BME280;11544;42.020;23.094;2024-01-16T06:51:12;96354.81;;;6.44;100.00
22755;BME280;11544;42.020;23.094;2024-01-16T06:53:40;96355.50;;;6.49;100.00
22755;BME280;11544;42.020;23.094;2024-01-16T06:56:07;96358.63;;;6.33;100.00
22755;BME280;11544;42.020;23.094;2024-01-16T06:58:35;96361.69;;;6.45;100.00
22755;BME280;11544;42.020;23.094;2024-01-16T07:01:03;96378.47;;;6.33;100.00
22755;BME280;11544;42.020;23.094;2024-01-16T07:03:30;96382.63;;;6.64;100.00
22755;BME280;11544;42.020;23.094;2024-01-16T07:05:57;96391.19;;;6.41;100.00
22755;BME280;11544;42.020;23.094;2024-01-16T07:08:25;96395.56;;;6.65;100.00
22755;BME280;11544;42.020;23.094;2024-01-16T07:10:52;96405.47;;;6.79;100.00
22755;BME280;11544;42.020;23.094;2024-01-16T07:13:19;96408.00;;;6.54;100.00
22755;BME280;11544;42.020;23.094;2024-01-16T07:15:46;96428.47;;;6.62;100.00
22755;BME280;11544;42.020;23.094;2024-01-16T07:18:13;96422.53;;;6.31;100.00
22755;BME280;11544;42.020;23.094;2024-01-16T07:20:41;96432.16;;;6.54;100.00
22755;BME280;11544;42.020;23.094;2024-01-16T07:23:08;96439.06;;;6.26;100.00
22755;BME280;11544;42.020;23.094;2024-01-16T07:25:35;96442.81;;;6.45;100.00
22755;BME280;11544;42.020;23.094;2024-01-16T07:28:02;96453.38;;;6.38;100.00
22755;BME280;11544;42.020;23.094;2024-01-16T07:30:29;96449.06;;;6.10;100.00
22755;BME280;11544;42.020;23.094;2024-01-16T07:32:56;96454.50;;;6.01;100.00
22755;BME280;11544;42.020;23.094;2024-01-16T07:35:23;96468.59;;;6.20;100.00
22755;BME280;11544;42.020;23.094;2024-01-16T07:37:50;96461.97;;;5.79;100.00
22755;BME280;11544;42.020;23.094;2024-01-16T07:40:17;96468.84;;;6.11;100.00
22755;BME280;11544;42.020;23.094;2024-01-16T07:42:44;96473.78;;;5.89;100.00
22755;BME280;11544;42.020;23.094;2024-01-16T07:45:11;96493.50;;;5.93;100.00
22755;BME280;11544;42.020;23.094;2024-01-16T07:47:38;96496.13;;;5.91;100.00
22755;BME280;11544;42.020;23.094;2024-01-16T07:50:06;96501.25;;;5.94;100.00
22755;BME280;11544;42.020;23.094;2024-01-16T07:52:34;96514.13;;;5.63;100.00
22755;BME280;11544;42.020;23.094;2024-01-16T07:55:01;96517.31;;;6.06;100.00
22755;BME280;11544;42.020;23.094;2024-01-16T07:57:29;96521.47;;;5.79;100.00
22755;BME280;11544;42.020;23.094;2024-01-16T07:59:56;96530.75;;;5.55;100.00
22755;BME280;11544;42.020;23.094;2024-01-16T08:02:32;96536.38;;;5.69;100.00
22755;BME280;11544;42.020;23.094;2024-01-16T08:04:59;96547.53;;;5.71;100.00
22755;BME280;11544;42.020;23.094;2024-01-16T08:07:26;96553.41;;;5.78;100.00
22755;BME280;11544;42.020;23.094;2024-01-16T08:09:54;96580.53;;;5.63;100.00
22755;BME280;11544;42.020;23.094;2024-01-16T08:12:21;96593.34;;;5.67;100.00
22755;BME280;11544;42.020;23.094;2024-01-16T08:14:48;96607.66;;;5.46;100.00
22755;BME280;11544;42.020;23.094;2024-01-16T08:17:15;96600.66;;;5.50;100.00
22755;BME280;11544;42.020;23.094;2024-01-16T08:19:42;96611.47;;;5.66;100.00
22755;BME280;11544;42.020;23.094;2024-01-16T08:22:09;96625.06;;;5.74;100.00
22755;BME280;11544;42.020;23.094;2024-01-16T08:24:37;96626.41;;;5.55;100.00
22755;BME280;11544;42.020;23.094;2024-01-16T08:27:04;96641.06;;;5.54;100.00
22755;BME280;11544;42.020;23.094;2024-01-16T08:29:31;96646.72;;;5.70;100.00
22755;BME280;11544;42.020;23.094;2024-01-16T08:31:58;96642.72;;;5.57;100.00
22755;BME280;11544;42.020;23.094;2024-01-16T08:34:25;96629.31;;;5.77;100.00
22755;BME280;11544;42.020;23.094;2024-01-16T08:36:52;96646.63;;;5.73;100.00
22755;BME280;11544;42.020;23.094;2024-01-16T08:39:24;96653.69;;;5.66;100.00
22755;BME280;11544;42.020;23.094;2024-01-16T08:41:51;96659.13;;;5.90;100.00
22755;BME280;11544;42.020;23.094;2024-01-16T08:44:18;96674.56;;;5.94;100.00
22755;BME280;11544;42.020;23.094;2024-01-16T08:46:45;96673.41;;;5.72;98.34
22755;BME280;11544;42.020;23.094;2024-01-16T08:49:13;96685.50;;;5.70;98.31
22755;BME280;11544;42.020;23.094;2024-01-16T08:51:46;96679.44;;;5.71;96.27
22755;BME280;11544;42.020;23.094;2024-01-16T08:54:13;96683.13;;;5.62;96.40
22755;BME280;11544;42.020;23.094;2024-01-16T08:56:40;96694.94;;;5.72;92.67
22755;BME280;11544;42.020;23.094;2024-01-16T08:59:07;96699.97;;;6.13;91.63
22755;BME280;11544;42.020;23.094;2024-01-16T09:01:35;96711.41;;;5.68;87.82
22755;BME280;11544;42.020;23.094;2024-01-16T09:04:03;96717.97;;;5.82;87.80
22755;BME280;11544;42.020;23.094;2024-01-16T09:06:30;96712.75;;;5.83;86.25
22755;BME280;11544;42.020;23.094;2024-01-16T09:08:57;96724.69;;;5.53;87.43
22755;BME280;11544;42.020;23.094;2024-01-16T09:11:24;96728.78;;;5.62;86.15
22755;BME280;11544;42.020;23.094;2024-01-16T09:13:51;96735.28;;;5.78;86.52
22755;BME280;11544;42.020;23.094;2024-01-16T09:16:18;96743.56;;;5.57;85.67
22755;BME280;11544;42.020;23.094;2024-01-16T09:18:45;96748.66;;;5.60;86.22
22755;BME280;11544;42.020;23.094;2024-01-16T09:21:14;96749.47;;;5.62;83.42
22755;BME280;11544;42.020;23.094;2024-01-16T09:23:41;96735.47;;;5.70;81.75
22755;BME280;11544;42.020;23.094;2024-01-16T09:26:08;96736.38;;;5.69;81.60
22755;BME280;11544;42.020;23.094;2024-01-16T09:28:35;96733.03;;;6.02;80.42
22755;BME280;11544;42.020;23.094;2024-01-16T09:31:02;96742.63;;;5.98;77.65
22755;BME280;11544;42.020;23.094;2024-01-16T09:33:29;96749.84;;;5.84;78.72
22755;BME280;11544;42.020;23.094;2024-01-16T09:35:56;96753.50;;;5.73;78.97
22755;BME280;11544;42.020;23.094;2024-01-16T09:38:23;96764.06;;;6.02;77.00
22755;BME280;11544;42.020;23.094;2024-01-16T09:40:50;96762.47;;;5.98;79.96
22755;BME280;11544;42.020;23.094;2024-01-16T09:43:19;96756.97;;;5.74;77.00
22755;BME280;11544;42.020;23.094;2024-01-16T09:45:47;96765.72;;;6.06;76.17
22755;BME280;11544;42.020;23.094;2024-01-16T09:48:15;96773.56;;;6.03;75.07
22755;BME280;11544;42.020;23.094;2024-01-16T09:50:43;96774.22;;;6.11;74.64
22755;BME280;11544;42.020;23.094;2024-01-16T09:53:10;96778.88;;;5.95;75.33
22755;BME280;11544;42.020;23.094;2024-01-16T09:55:38;96795.41;;;5.89;73.60
22755;BME280;11544;42.020;23.094;2024-01-16T09:58:05;96781.31;;;6.03;74.17
22755;BME280;11544;42.020;23.094;2024-01-16T10:00:36;96790.13;;;5.96;74.56
22755;BME280;11544;42.020;23.094;2024-01-16T10:03:03;96793.66;;;5.90;74.33
22755;BME280;11544;42.020;23.094;2024-01-16T10:05:31;96789.16;;;6.34;74.02
22755;BME280;11544;42.020;23.094;2024-01-16T10:07:59;96792.56;;;6.36;73.13
22755;BME280;11544;42.020;23.094;2024-01-16T10:10:25;96794.97;;;6.42;73.70
22755;BME280;11544;42.020;23.094;2024-01-16T10:13:13;96794.13;;;6.43;72.06
22755;BME280;11544;42.020;23.094;2024-01-16T10:15:41;96792.00;;;6.25;71.80
22755;BME280;11544;42.020;23.094;2024-01-16T10:18:22;96789.63;;;6.50;70.28
22755;BME280;11544;42.020;23.094;2024-01-16T10:20:51;96787.41;;;6.69;68.79
22755;BME280;11544;42.020;23.094;2024-01-16T10:23:24;96786.16;;;6.82;67.56
22755;BME280;11544;42.020;23.094;2024-01-16T10:28:35;96794.56;;;6.59;65.69
22755;BME280;11544;42.020;23.094;2024-01-16T10:31:03;96794.00;;;7.12;62.76
22755;BME280;11544;42.020;23.094;2024-01-16T10:33:31;96798.03;;;6.58;64.37
22755;BME280;11544;42.020;23.094;2024-01-16T10:36:17;96804.59;;;6.39;64.37
22755;BME280;11544;42.020;23.094;2024-01-16T10:38:46;96800.63;;;6.58;63.53
22755;BME280;11544;42.020;23.094;2024-01-16T10:41:15;96803.94;;;6.63;63.62
22755;BME280;11544;42.020;23.094;2024-01-16T10:43:44;96807.81;;;6.79;63.21
22755;BME280;11544;42.020;23.094;2024-01-16T10:46:18;96809.47;;;6.15;61.99
22755;BME280;11544;42.020;23.094;2024-01-16T10:49:10;96815.56;;;6.48;63.18
22755;BME280;11544;42.020;23.094;2024-01-16T10:51:38;96801.44;;;6.60;62.80
22755;BME280;11544;42.020;23.094;2024-01-16T10:54:12;96812.66;;;6.92;61.66
22755;BME280;11544;42.020;23.094;2024-01-16T10:56:45;96815.41;;;6.54;59.77
22755;BME280;11544;42.020;23.094;2024-01-16T10:59:24;96821.13;;;6.98;61.71
22755;BME280;11544;42.020;23.094;2024-01-16T11:01:54;96818.66;;;6.94;61.44
22755;BME280;11544;42.020;23.094;2024-01-16T11:04:24;96811.91;;;6.90;62.10
22755;BME280;11544;42.020;23.094;2024-01-16T11:06:52;96808.16;;;7.00;60.08
22755;BME280;11544;42.020;23.094;2024-01-16T11:09:21;96811.44;;;7.36;59.91
22755;BME280;11544;42.020;23.094;2024-01-16T11:11:50;96819.31;;;7.02;59.13
22755;BME280;11544;42.020;23.094;2024-01-16T11:14:22;96809.09;;;6.65;58.98
22755;BME280;11544;42.020;23.094;2024-01-16T11:16:53;96811.94;;;6.87;60.43
22755;BME280;11544;42.020;23.094;2024-01-16T11:19:22;96809.34;;;6.88;59.03
22755;BME280;11544;42.020;23.094;2024-01-16T11:22:09;96809.19;;;7.24;58.17
22755;BME280;11544;42.020;23.094;2024-01-16T11:24:37;96800.81;;;7.16;60.24
22755;BME280;11544;42.020;23.094;2024-01-16T11:27:04;96799.53;;;6.99;59.10
22755;BME280;11544;42.020;23.094;2024-01-16T11:31:58;96796.03;;;6.69;58.65
22755;BME280;11544;42.020;23.094;2024-01-16T11:37:29;96791.34;;;7.13;58.31
22755;BME280;11544;42.020;23.094;2024-01-16T11:42:50;96801.72;;;7.73;57.21
22755;BME280;11544;42.020;23.094;2024-01-16T11:48:16;96804.53;;;7.06;60.20
22755;BME280;11544;42.020;23.094;2024-01-16T11:50:44;96816.97;;;6.93;60.63
22755;BME280;11544;42.020;23.094;2024-01-16T11:53:34;96814.47;;;6.90;60.07
22755;BME280;11544;42.020;23.094;2024-01-16T11:56:13;96818.81;;;7.20;59.10
22755;BME280;11544;42.020;23.094;2024-01-16T11:59:08;96809.00;;;7.00;58.58
22755;BME280;11544;42.020;23.094;2024-01-16T12:01:38;96810.81;;;7.28;59.80
22755;BME280;11544;42.020;23.094;2024-01-16T12:04:05;96804.22;;;7.46;59.33
22755;BME280;11544;42.020;23.094;2024-01-16T12:06:36;96819.31;;;7.33;59.20
22755;BME280;11544;42.020;23.094;2024-01-16T12:09:14;96821.72;;;7.39;58.88
22755;BME280;11544;42.020;23.094;2024-01-16T12:11:41;96814.97;;;7.34;57.67
22755;BME280;11544;42.020;23.094;2024-01-16T12:14:15;96815.75;;;7.37;57.37
22755;BME280;11544;42.020;23.094;2024-01-16T12:16:42;96817.97;;;7.50;58.00
22755;BME280;11544;42.020;23.094;2024-01-16T12:19:09;96821.41;;;7.50;57.08
22755;BME280;11544;42.020;23.094;2024-01-16T12:21:44;96830.28;;;7.71;56.64
22755;BME280;11544;42.020;23.094;2024-01-16T12:24:11;96830.66;;;7.59;58.13
22755;BME280;11544;42.020;23.094;2024-01-16T12:26:44;96830.47;;;7.65;57.83
22755;BME280;11544;42.020;23.094;2024-01-16T12:29:11;96833.34;;;7.56;56.68
22755;BME280;11544;42.020;23.094;2024-01-16T12:31:38;96833.31;;;7.28;57.60
22755;BME280;11544;42.020;23.094;2024-01-16T12:34:06;96836.53;;;7.66;57.66
22755;BME280;11544;42.020;23.094;2024-01-16T12:36:36;96840.38;;;7.52;57.22
22755;BME280;11544;42.020;23.094;2024-01-16T12:39:04;96826.31;;;6.98;57.07
22755;BME280;11544;42.020;23.094;2024-01-16T12:41:41;96832.31;;;7.00;57.56
22755;BME280;11544;42.020;23.094;2024-01-16T12:44:09;96839.25;;;7.31;56.81
22755;BME280;11544;42.020;23.094;2024-01-16T12:47:07;96838.50;;;7.85;55.68
22755;BME280;11544;42.020;23.094;2024-01-16T12:49:31;96845.72;;;7.16;56.56
22755;BME280;11544;42.020;23.094;2024-01-16T12:52:17;96835.38;;;7.74;56.27
22755;BME280;11544;42.020;23.094;2024-01-16T12:54:45;96832.44;;;7.57;56.08
22755;BME280;11544;42.020;23.094;2024-01-16T12:57:19;96834.00;;;7.92;55.18
22755;BME280;11544;42.020;23.094;2024-01-16T12:59:47;96835.75;;;7.92;53.77
22755;BME280;11544;42.020;23.094;2024-01-16T13:02:20;96835.31;;;7.77;54.28
22755;BME280;11544;42.020;23.094;2024-01-16T13:04:56;96845.22;;;8.19;54.33
22755;BME280;11544;42.020;23.094;2024-01-16T13:07:25;96846.59;;;8.31;55.06
22755;BME280;11544;42.020;23.094;2024-01-16T13:12:35;96850.84;;;8.34;55.51
22755;BME280;11544;42.020;23.094;2024-01-16T13:15:03;96851.22;;;8.21;56.01
22755;BME280;11544;42.020;23.094;2024-01-16T13:17:35;96855.06;;;8.10;56.68